Ojai, CA

9:26 PM PDT on October 20, 2014 (GMT -0700)
Fairview Road | Change Station
CLOSE
Current Station
Personal Weather Station
Location: Ojai, CA
Elevation: 1056 ft
Nearby Weather Stations

Elev 1056 ft 34.46 °N, 119.26 °W | Updated 14 minutes ago

Clear
Clear
60.8 °F
Feels Like 60.8 °F
N
0.0
Wind Variable Wind from West

Today
High -- | Low -- °F
--% Chance of Precip.
Yesterday
High -- | Low -- °F
Precip. -- in
7:06 AM 6:16 PM
Waning Crescent, 7% visible
Pressure 29.88 in
Visibility 10.0 miles
Clouds Clear
Dew Point 56 °F
Humidity 84%
Rainfall 0.00 in
Snow Depth Not available.
UV 0 out of 12
Pollen 4.50 out of 12
Ozone Good
Flu Activity Sporadic
METAR KOXR 210351Z AUTO 06004KT 10SM CLR 19/16 A2988 RMK AO2 SLP118 T01890161

More Conditions Fewer Conditions

Pressure 29.88 in
Visibility 10.0 miles
Clouds Clear
Dew Point 56 °F
Humidity 84%
Rainfall 0.00 in
Snow Depth Not available.
UV 0 out of 12
Pollen 4.50 out of 12
Ozone Good
Flu Activity Sporadic
METAR KOXR 210351Z AUTO 06004KT 10SM CLR 19/16 A2988 RMK AO2 SLP118 T01890161

More Conditions Fewer Conditions

10-Day Weather Forecast

Almanac

Astronomy

Oct. 20, 2014 Rise Set
Actual Time 7:06 AM PDT 6:16 PM PDT
Civil Twilight 6:41 AM PDT 6:41 PM PDT
Nautical Twilight 6:11 AM PDT 7:11 PM PDT
Astronomical Twilight 5:42 AM PDT 7:40 PM PDT
Moon 4:07 AM PDT (10/20) 4:35 PM PDT (10/20)
Length of Visible Light 12h 00m
Length of Day
11h 09m
Tomorrow will be 2m 2s shorter.
Waning Crescent, 7% of the Moon is Illuminated
Oct 21
Waning Crescent
Oct 23
New
Oct 30
First Quarter
Nov 6
Full
Nov 14
Last Quarter

Yesterday's Extremes

State Highs State Lows

Community

WunderPhotos

Upload Photos

1,763,608 photos uploaded!

Nearby

Air Quality

  Air Quality AQ Index Pollutant
Yesterday Good
OZONE
Current Good
OZONE
Monday Good
OZONE
Monday Good
PM2.5
Tuesday Good
OZONE
Tuesday Good
PM2.5
Wednesday Good
OZONE
Wednesday Good
PM2.5
Thursday Good
OZONE
Thursday Good
PM2.5
Friday Good
OZONE
Friday Good
PM2.5
Saturday Good
OZONE
Saturday Good
PM2.5

Snow Depth

Station Depth Elevation
Virginia Lakes Ridge 0 in 9200 ft
Leavitt Lake 1 in 9400 ft
Sonora Pass 0 in 8800 ft
Leavitt Meadows 1 in 7200 ft
Summit Meadow 1 in 9122 ft

Earthquake Activity

City Distance Mag. Time & Date
Lone Pine, California 133 miles 2.6 5:26 AM PDT
2014-10-19
Minimum magnitude displayed is 2.5.

Coastal Water Temperatures

Place Temperature
Santa Monica Pier 70.0 °F
Los Angeles, CA 69.1 °F
Port San Luis, CA 66.9 °F

Nearby Weather Stations